Ever Diamond — 3FQS8 — position and weather

sailwx.info

Track history (hours):
 
Tides and Currents Weather Stations Pressure Air Temp Water Temp Dewpoint Dewpoint Depression Visibility Wind Speed Wind Dir Waves Ship Positions

Ever Diamond

Last reported at 2017-Jun-20 19:35 UTC. Time now 2017-Jun-26 19:06 UTC.
Position N 02°05' E 102°07'.

Type: Ship (hazmat cat D). MMSI: 354893000.

Date/timePositionNaut miles runAvg speedWind from/ knotsBaromVisibWave heightAir tempDewpointWater temp
2017-Jun-20 19:35N 02°05' E 102°07'213.3
2017-Jun-20 19:27N 02°04' E 102°08'713.7
2017-Jun-20 18:54N 01°59' E 102°14'614.0
2017-Jun-20 18:29N 01°55' E 102°19'814.4
2017-Jun-20 17:55N 01°52' E 102°26'614.7
2017-Jun-20 17:30N 01°49' E 102°31'1714.8
2017-Jun-20 16:23N 01°42' E 102°46'614.6
2017-Jun-20 15:59N 01°39' E 102°51'714.5
2017-Jun-20 15:29N 01°35' E 102°57'2814.1
2017-Jun-20 13:28N 01°18' E 103°20'613.2
2017-Jun-20 13:00N 01°14' E 103°25'713.1
2017-Jun-20 12:30N 01°12' E 103°31'613.2
2017-Jun-20 12:01N 01°12' E 103°38'5 9.9
2017-Jun-20 11:31N 01°14' E 103°42'5 9.7
2017-Jun-20 11:00N 01°15' E 103°47'0 0.9
2017-Jun-20 10:30N 01°16' E 103°47'0 0.0
2017-Jun-20 10:00N 01°16' E 103°47'0 0.0
2017-Jun-20 09:30N 01°15' E 103°47'0 0.0
2017-Jun-20 09:00N 01°15' E 103°47'0 0.0
2017-Jun-20 08:30N 01°15' E 103°47'0 0.0
2017-Jun-20 08:00N 01°16' E 103°47'0 0.0
2017-Jun-20 07:30N 01°16' E 103°47'0 0.0
2017-Jun-20 07:00N 01°16' E 103°47'0 0.0
2017-Jun-20 06:30N 01°16' E 103°47'0 0.0
2017-Jun-20 06:00N 01°16' E 103°47'0 0.0
2017-Jun-20 05:30N 01°16' E 103°47'0 0.0
2017-Jun-20 05:00N 01°16' E 103°47'0 0.0
2017-Jun-20 04:30N 01°15' E 103°47'0 0.0
2017-Jun-20 04:00N 01°16' E 103°47'0 0.0
2017-Jun-20 03:30N 01°16' E 103°47'0 0.0
2017-Jun-20 03:00N 01°16' E 103°47'0 0.0
2017-Jun-20 02:30N 01°16' E 103°47'0 0.0
2017-Jun-20 02:00N 01°16' E 103°47'0 0.0
2017-Jun-20 01:30N 01°16' E 103°47'0 0.0
2017-Jun-20 01:00N 01°16' E 103°47'0 0.0
2017-Jun-20 00:30N 01°16' E 103°47'0 0.0
2017-Jun-20 00:00N 01°16' E 103°47'0 0.0
2017-Jun-19 23:30N 01°16' E 103°47'0 0.0
2017-Jun-19 23:01N 01°16' E 103°47'0 0.0
2017-Jun-19 22:30N 01°16' E 103°47'0 0.0
2017-Jun-19 22:00N 01°16' E 103°47'0 0.0
2017-Jun-19 21:30N 01°16' E 103°47'0 0.0
2017-Jun-19 21:00N 01°16' E 103°47'0 0.0
2017-Jun-19 20:30N 01°16' E 103°47'0 0.0
2017-Jun-19 20:00N 01°16' E 103°47'0 0.0
2017-Jun-19 19:30N 01°16' E 103°47'0 0.0
2017-Jun-19 19:00N 01°16' E 103°47'0 0.0
2017-Jun-19 18:30N 01°16' E 103°47'0 0.0
2017-Jun-19 18:00N 01°16' E 103°47'0 0.0
2017-Jun-19 17:30N 01°16' E 103°47'0 0.0
2017-Jun-19 17:00N 01°16' E 103°47'0 0.0
2017-Jun-19 16:30N 01°16' E 103°47'0 0.0
2017-Jun-19 16:00N 01°16' E 103°47'0 0.0
2017-Jun-19 15:30N 01°16' E 103°47'0 0.0
2017-Jun-19 15:00N 01°16' E 103°47'0 0.0
2017-Jun-19 14:30N 01°16' E 103°47'0 0.0
2017-Jun-19 13:30N 01°16' E 103°47'0 0.0
2017-Jun-19 13:00N 01°16' E 103°47'0 0.0
2017-Jun-19 12:30N 01°16' E 103°47'0 0.0
2017-Jun-19 12:00N 01°16' E 103°47'0 0.0
2017-Jun-19 11:30N 01°16' E 103°47'0 0.0
2017-Jun-19 11:00N 01°16' E 103°47'1 1.6
2017-Jun-19 10:30N 01°15' E 103°47'4 7.1
2017-Jun-19 10:01N 01°13' E 103°50'4 8.7
2017-Jun-19 09:30N 01°14' E 103°54'3 5.4
2017-Jun-19 09:00N 01°15' E 103°57'3 6.8
2017-Jun-19 08:29N 01°16' E 104°00'4 7.0
2017-Jun-19 07:58N 01°16' E 104°04'4 7.3
2017-Jun-19 07:26N 01°17' E 104°07'  
2017-Jun-13 17:59N 01°15' E 104°08'817.4
2017-Jun-13 17:30N 01°14' E 103°60'815.3
2017-Jun-13 17:00N 01°12' E 103°52'5 9.9
2017-Jun-13 16:31N 01°13' E 103°48'5 9.8
2017-Jun-13 16:01N 01°17' E 103°45'1 1.4
2017-Jun-13 15:29N 01°17' E 103°46'0 0.0
2017-Jun-13 14:56N 01°17' E 103°46'0 0.0
2017-Jun-13 13:56N 01°17' E 103°46'0 0.0
2017-Jun-13 13:26N 01°17' E 103°46'0 0.0
2017-Jun-13 12:56N 01°17' E 103°46'0 0.0
2017-Jun-13 12:26N 01°17' E 103°46'0 0.0
2017-Jun-13 11:59N 01°17' E 103°46'0 0.0
2017-Jun-13 11:29N 01°17' E 103°46'0 0.0
2017-Jun-13 10:56N 01°17' E 103°46'0 0.0
2017-Jun-13 10:30N 01°17' E 103°46'0 0.0
2017-Jun-13 09:57N 01°17' E 103°46'0 0.0
2017-Jun-13 09:30N 01°17' E 103°46'0 0.0
2017-Jun-13 08:57N 01°17' E 103°46'0 0.0
2017-Jun-13 08:28N 01°17' E 103°46'0 0.0
2017-Jun-13 07:58N 01°17' E 103°46'0 0.0
2017-Jun-13 07:25N 01°17' E 103°46'0 0.0
2017-Jun-13 06:58N 01°17' E 103°46'0 0.0
2017-Jun-13 06:28N 01°17' E 103°46'0 0.0
2017-Jun-13 05:58N 01°17' E 103°46'0 0.0
2017-Jun-13 05:30N 01°17' E 103°46'0 0.0
2017-Jun-13 04:22N 01°17' E 103°46'0 0.0
2017-Jun-13 03:58N 01°17' E 103°46'0 0.0
2017-Jun-13 03:28N 01°17' E 103°46'0 0.0
2017-Jun-13 02:58N 01°17' E 103°46'0 0.0
2017-Jun-13 02:28N 01°17' E 103°46'0 0.0
2017-Jun-13 01:58N 01°17' E 103°46'0 0.0
2017-Jun-13 01:31N 01°17' E 103°46'0 0.5
2017-Jun-13 01:00N 01°17' E 103°46'1 2.3
2017-Jun-13 00:31N 01°17' E 103°45'2 4.9
2017-Jun-13 00:00N 01°15' E 103°46'714.2
2017-Jun-12 23:30N 01°12' E 103°39'4 8.5
2017-Jun-12 23:00N 01°12' E 103°35'3 6.5
2017-Jun-12 22:30N 01°11' E 103°32'4 7.8
2017-Jun-12 22:00N 01°11' E 103°28'1 1.3
2017-Jun-12 21:30N 01°11' E 103°28'1 2.2
2017-Jun-12 21:01N 01°10' E 103°27'4 8.0
2017-Jun-12 20:29N 01°12' E 103°24'5713.1
2017-Jun-12 16:07N 01°44' E 102°36'314.8
2017-Jun-12 15:57N 01°45' E 102°34'714.8
2017-Jun-12 15:30N 01°48' E 102°28'  
Track history (hours):
 
Tides and Currents Weather Stations Pressure Air Temp Water Temp Dewpoint Dewpoint Depression Visibility Wind Speed Wind Dir Waves Ship Positions

Ever Diamond

Last reported at 2017-Jun-20 19:35 UTC. Time now 2017-Jun-26 19:06 UTC.
Position N 02°05' E 102°07'.

Type: Ship (hazmat cat D). MMSI: 354893000.

Date/timePositionNaut miles runAvg speedWind from/ knotsBaromVisibWave heightAir tempDewpointWater temp
2017-Jun-20 19:35N 02°05' E 102°07'213.3
2017-Jun-20 19:27N 02°04' E 102°08'713.7
2017-Jun-20 18:54N 01°59' E 102°14'614.0
2017-Jun-20 18:29N 01°55' E 102°19'814.4
2017-Jun-20 17:55N 01°52' E 102°26'614.7
2017-Jun-20 17:30N 01°49' E 102°31'1714.8
2017-Jun-20 16:23N 01°42' E 102°46'614.6
2017-Jun-20 15:59N 01°39' E 102°51'714.5
2017-Jun-20 15:29N 01°35' E 102°57'2814.1
2017-Jun-20 13:28N 01°18' E 103°20'613.2
2017-Jun-20 13:00N 01°14' E 103°25'713.1
2017-Jun-20 12:30N 01°12' E 103°31'613.2
2017-Jun-20 12:01N 01°12' E 103°38'5 9.9
2017-Jun-20 11:31N 01°14' E 103°42'5 9.7
2017-Jun-20 11:00N 01°15' E 103°47'0 0.9
2017-Jun-20 10:30N 01°16' E 103°47'0 0.0
2017-Jun-20 10:00N 01°16' E 103°47'0 0.0
2017-Jun-20 09:30N 01°15' E 103°47'0 0.0
2017-Jun-20 09:00N 01°15' E 103°47'0 0.0
2017-Jun-20 08:30N 01°15' E 103°47'0 0.0
2017-Jun-20 08:00N 01°16' E 103°47'0 0.0
2017-Jun-20 07:30N 01°16' E 103°47'0 0.0
2017-Jun-20 07:00N 01°16' E 103°47'0 0.0
2017-Jun-20 06:30N 01°16' E 103°47'0 0.0
2017-Jun-20 06:00N 01°16' E 103°47'0 0.0
2017-Jun-20 05:30N 01°16' E 103°47'0 0.0
2017-Jun-20 05:00N 01°16' E 103°47'0 0.0
2017-Jun-20 04:30N 01°15' E 103°47'0 0.0
2017-Jun-20 04:00N 01°16' E 103°47'0 0.0
2017-Jun-20 03:30N 01°16' E 103°47'0 0.0
2017-Jun-20 03:00N 01°16' E 103°47'0 0.0
2017-Jun-20 02:30N 01°16' E 103°47'0 0.0
2017-Jun-20 02:00N 01°16' E 103°47'0 0.0
2017-Jun-20 01:30N 01°16' E 103°47'0 0.0
2017-Jun-20 01:00N 01°16' E 103°47'0 0.0
2017-Jun-20 00:30N 01°16' E 103°47'0 0.0
2017-Jun-20 00:00N 01°16' E 103°47'0 0.0
2017-Jun-19 23:30N 01°16' E 103°47'0 0.0
2017-Jun-19 23:01N 01°16' E 103°47'0 0.0
2017-Jun-19 22:30N 01°16' E 103°47'0 0.0
2017-Jun-19 22:00N 01°16' E 103°47'0 0.0
2017-Jun-19 21:30N 01°16' E 103°47'0 0.0
2017-Jun-19 21:00N 01°16' E 103°47'0 0.0
2017-Jun-19 20:30N 01°16' E 103°47'0 0.0
2017-Jun-19 20:00N 01°16' E 103°47'0 0.0
2017-Jun-19 19:30N 01°16' E 103°47'0 0.0
2017-Jun-19 19:00N 01°16' E 103°47'0 0.0
2017-Jun-19 18:30N 01°16' E 103°47'0 0.0
2017-Jun-19 18:00N 01°16' E 103°47'0 0.0
2017-Jun-19 17:30N 01°16' E 103°47'0 0.0
2017-Jun-19 17:00N 01°16' E 103°47'0 0.0
2017-Jun-19 16:30N 01°16' E 103°47'0 0.0
2017-Jun-19 16:00N 01°16' E 103°47'0 0.0
2017-Jun-19 15:30N 01°16' E 103°47'0 0.0
2017-Jun-19 15:00N 01°16' E 103°47'0 0.0
2017-Jun-19 14:30N 01°16' E 103°47'0 0.0
2017-Jun-19 13:30N 01°16' E 103°47'0 0.0
2017-Jun-19 13:00N 01°16' E 103°47'0 0.0
2017-Jun-19 12:30N 01°16' E 103°47'0 0.0
2017-Jun-19 12:00N 01°16' E 103°47'0 0.0
2017-Jun-19 11:30N 01°16' E 103°47'0 0.0
2017-Jun-19 11:00N 01°16' E 103°47'1 1.6
2017-Jun-19 10:30N 01°15' E 103°47'4 7.1
2017-Jun-19 10:01N 01°13' E 103°50'4 8.7
2017-Jun-19 09:30N 01°14' E 103°54'3 5.4
2017-Jun-19 09:00N 01°15' E 103°57'3 6.8
2017-Jun-19 08:29N 01°16' E 104°00'4 7.0
2017-Jun-19 07:58N 01°16' E 104°04'4 7.3
2017-Jun-19 07:26N 01°17' E 104°07'  
2017-Jun-13 17:59N 01°15' E 104°08'817.4
2017-Jun-13 17:30N 01°14' E 103°60'815.3
2017-Jun-13 17:00N 01°12' E 103°52'5 9.9
2017-Jun-13 16:31N 01°13' E 103°48'5 9.8
2017-Jun-13 16:01N 01°17' E 103°45'1 1.4
2017-Jun-13 15:29N 01°17' E 103°46'0 0.0
2017-Jun-13 14:56N 01°17' E 103°46'0 0.0
2017-Jun-13 13:56N 01°17' E 103°46'0 0.0
2017-Jun-13 13:26N 01°17' E 103°46'0 0.0
2017-Jun-13 12:56N 01°17' E 103°46'0 0.0
2017-Jun-13 12:26N 01°17' E 103°46'0 0.0
2017-Jun-13 11:59N 01°17' E 103°46'0 0.0
2017-Jun-13 11:29N 01°17' E 103°46'0 0.0
2017-Jun-13 10:56N 01°17' E 103°46'0 0.0
2017-Jun-13 10:30N 01°17' E 103°46'0 0.0
2017-Jun-13 09:57N 01°17' E 103°46'0 0.0
2017-Jun-13 09:30N 01°17' E 103°46'0 0.0
2017-Jun-13 08:57N 01°17' E 103°46'0 0.0
2017-Jun-13 08:28N 01°17' E 103°46'0 0.0
2017-Jun-13 07:58N 01°17' E 103°46'0 0.0
2017-Jun-13 07:25N 01°17' E 103°46'0 0.0
2017-Jun-13 06:58N 01°17' E 103°46'0 0.0
2017-Jun-13 06:28N 01°17' E 103°46'0 0.0
2017-Jun-13 05:58N 01°17' E 103°46'0 0.0
2017-Jun-13 05:30N 01°17' E 103°46'0 0.0
2017-Jun-13 04:22N 01°17' E 103°46'0 0.0
2017-Jun-13 03:58N 01°17' E 103°46'0 0.0
2017-Jun-13 03:28N 01°17' E 103°46'0 0.0
2017-Jun-13 02:58N 01°17' E 103°46'0 0.0
2017-Jun-13 02:28N 01°17' E 103°46'0 0.0
2017-Jun-13 01:58N 01°17' E 103°46'0 0.0
2017-Jun-13 01:31N 01°17' E 103°46'0 0.5
2017-Jun-13 01:00N 01°17' E 103°46'1 2.3
2017-Jun-13 00:31N 01°17' E 103°45'2 4.9
2017-Jun-13 00:00N 01°15' E 103°46'714.2
2017-Jun-12 23:30N 01°12' E 103°39'4 8.5
2017-Jun-12 23:00N 01°12' E 103°35'3 6.5
2017-Jun-12 22:30N 01°11' E 103°32'4 7.8
2017-Jun-12 22:00N 01°11' E 103°28'1 1.3
2017-Jun-12 21:30N 01°11' E 103°28'1 2.2
2017-Jun-12 21:01N 01°10' E 103°27'4 8.0
2017-Jun-12 20:29N 01°12' E 103°24'5713.1
2017-Jun-12 16:07N 01°44' E 102°36'314.8
2017-Jun-12 15:57N 01°45' E 102°34'714.8
2017-Jun-12 15:30N 01°48' E 102°28'  

Dump ship's entire track history